createdAt,value
2022-12-03T00:00:18.844Z,3.61
2022-12-03T00:03:03.877Z,3.62
2022-12-03T00:05:49.475Z,3.70
2022-12-03T00:08:34.668Z,3.41
2022-12-03T00:11:19.636Z,3.89
2022-12-03T00:14:04.589Z,4.23
2022-12-03T00:16:49.650Z,3.74
2022-12-03T00:19:34.598Z,3.61
2022-12-03T00:22:19.656Z,3.56
2022-12-03T00:25:04.535Z,3.89
2022-12-03T00:27:49.482Z,3.67
2022-12-03T00:30:34.271Z,3.84
2022-12-03T00:33:19.728Z,3.65
2022-12-03T00:36:04.671Z,3.67
2022-12-03T00:38:49.599Z,3.68
2022-12-03T00:41:34.521Z,3.75
2022-12-03T00:44:19.310Z,3.76
2022-12-03T00:47:04.326Z,3.84
2022-12-03T00:49:49.730Z,3.60
2022-12-03T00:52:34.567Z,4.07
2022-12-03T00:55:19.539Z,3.75
2022-12-03T00:58:04.478Z,3.98
2022-12-03T01:00:49.354Z,3.98
2022-12-03T01:03:34.252Z,3.48
2022-12-03T01:06:19.301Z,3.03
2022-12-03T01:09:04.099Z,3.31
2022-12-03T01:11:49.158Z,3.37
2022-12-03T01:14:34.043Z,3.82
2022-12-03T01:17:18.993Z,3.86
2022-12-03T01:20:03.914Z,3.71
2022-12-03T01:22:48.901Z,3.12
2022-12-03T01:25:33.877Z,3.34
2022-12-03T01:28:18.826Z,3.14
2022-12-03T01:31:03.887Z,3.43
2022-12-03T01:33:48.529Z,3.65
2022-12-03T01:36:33.429Z,3.45
2022-12-03T01:39:18.306Z,3.46
2022-12-03T01:42:03.316Z,3.58
2022-12-03T01:44:48.265Z,3.43
2022-12-03T01:47:33.294Z,3.57
2022-12-03T01:50:18.175Z,3.25
2022-12-03T01:53:03.242Z,3.35
2022-12-03T01:55:49.173Z,3.47
2022-12-03T01:58:34.071Z,3.30
2022-12-03T02:01:19.014Z,3.31
2022-12-03T02:04:03.895Z,3.09
2022-12-03T02:06:49.528Z,3.13
2022-12-03T02:09:34.393Z,3.38
2022-12-03T02:12:19.453Z,3.00
2022-12-03T02:15:04.385Z,2.93
2022-12-03T02:17:49.329Z,3.16
2022-12-03T02:20:34.374Z,3.03
2022-12-03T02:23:19.242Z,3.00
2022-12-03T02:26:04.104Z,3.22
2022-12-03T02:28:49.103Z,3.15
2022-12-03T02:31:34.082Z,2.52
2022-12-03T02:34:19.500Z,2.64
2022-12-03T02:37:04.411Z,2.88
2022-12-03T02:39:49.457Z,2.69
2022-12-03T02:42:34.340Z,2.78
2022-12-03T02:45:19.231Z,2.68
2022-12-03T02:48:04.102Z,2.80
2022-12-03T02:50:49.164Z,2.88
2022-12-03T02:53:34.149Z,2.78
2022-12-03T02:56:19.191Z,2.34
2022-12-03T02:59:04.155Z,2.51
2022-12-03T03:01:49.134Z,2.48
2022-12-03T03:04:34.162Z,2.73
2022-12-03T03:07:18.949Z,2.83
2022-12-03T03:10:03.756Z,2.74
2022-12-03T03:12:48.565Z,2.42
2022-12-03T03:15:33.514Z,2.30
2022-12-03T03:18:18.409Z,2.28
2022-12-03T03:21:03.334Z,2.61
2022-12-03T03:23:48.223Z,2.64
2022-12-03T03:26:33.064Z,2.75
2022-12-03T03:29:18.155Z,2.28
2022-12-03T03:32:03.085Z,2.61
2022-12-03T03:34:48.457Z,2.32
2022-12-03T03:37:33.363Z,2.78
2022-12-03T03:40:18.263Z,2.56
2022-12-03T03:43:03.165Z,2.50
2022-12-03T03:45:48.030Z,2.53
2022-12-03T03:48:33.078Z,2.56
2022-12-03T03:51:18.161Z,2.49
2022-12-03T03:54:03.266Z,2.32
2022-12-03T03:56:48.069Z,2.52
2022-12-03T03:59:33.090Z,2.39
2022-12-03T04:02:18.042Z,2.35
2022-12-03T04:05:03.224Z,2.57
2022-12-03T04:07:48.679Z,2.48
2022-12-03T04:10:33.454Z,2.41
2022-12-03T04:13:18.470Z,2.63
2022-12-03T04:16:03.475Z,2.17
2022-12-03T04:18:48.821Z,2.39
2022-12-03T04:21:33.619Z,2.31
2022-12-03T04:24:18.636Z,2.21
2022-12-03T04:27:03.458Z,2.48
2022-12-03T04:29:48.300Z,2.38
2022-12-03T04:32:33.492Z,2.50
2022-12-03T04:35:19.032Z,2.34
2022-12-03T04:38:04.291Z,2.43
2022-12-03T04:40:49.116Z,2.69
2022-12-03T04:43:34.172Z,2.26
2022-12-03T04:46:19.123Z,2.60
2022-12-03T04:49:04.107Z,2.28
2022-12-03T04:51:49.218Z,2.36
2022-12-03T04:54:34.051Z,2.47
2022-12-03T04:57:19.010Z,2.54
2022-12-03T05:00:03.843Z,2.08
2022-12-03T05:02:49.015Z,2.02
2022-12-03T05:05:34.506Z,2.32
2022-12-03T05:08:19.991Z,2.39
2022-12-03T05:11:04.939Z,2.60
2022-12-03T05:13:50.004Z,2.37
2022-12-03T05:16:34.884Z,2.30
2022-12-03T05:19:19.701Z,2.30
2022-12-03T05:22:04.699Z,2.50
2022-12-03T05:24:49.685Z,2.41
2022-12-03T05:27:34.608Z,2.13
2022-12-03T05:30:19.433Z,2.16
2022-12-03T05:33:04.371Z,2.23
2022-12-03T05:35:49.241Z,2.58
2022-12-03T05:38:34.164Z,2.10
2022-12-03T05:41:19.069Z,2.35
2022-12-03T05:44:03.930Z,2.26
2022-12-03T05:46:48.908Z,2.21
2022-12-03T05:49:33.699Z,2.31
2022-12-03T05:52:18.696Z,1.97
2022-12-03T05:55:03.499Z,2.63
2022-12-03T05:57:48.455Z,2.24
2022-12-03T06:00:37.640Z,2.12
2022-12-03T06:03:26.128Z,2.39
2022-12-03T06:06:11.259Z,2.75
2022-12-03T06:08:56.313Z,2.44
2022-12-03T06:11:41.216Z,2.32
2022-12-03T06:14:26.126Z,2.44
2022-12-03T06:17:10.985Z,2.12
2022-12-03T06:19:55.870Z,2.00
2022-12-03T06:22:40.731Z,2.63
2022-12-03T06:25:25.768Z,2.59
2022-12-03T06:28:10.721Z,2.72
2022-12-03T06:30:55.826Z,2.84
2022-12-03T06:33:41.151Z,2.80
2022-12-03T06:36:26.210Z,2.65
2022-12-03T06:39:11.245Z,2.56
2022-12-03T06:41:56.247Z,2.49
2022-12-03T06:44:41.148Z,2.31
2022-12-03T06:47:26.086Z,2.14
2022-12-03T06:50:11.017Z,2.52
2022-12-03T06:52:55.820Z,2.51
2022-12-03T06:55:40.658Z,2.41
2022-12-03T06:58:25.597Z,2.57
2022-12-03T07:01:10.541Z,2.47
2022-12-03T07:03:55.422Z,2.89
2022-12-03T07:06:40.307Z,2.72
2022-12-03T07:09:25.168Z,2.79
2022-12-03T07:12:10.390Z,2.84
2022-12-03T07:14:55.625Z,3.06
2022-12-03T07:17:41.186Z,3.20
2022-12-03T07:20:25.940Z,3.06
2022-12-03T07:23:10.804Z,3.14
2022-12-03T07:25:55.568Z,3.19
2022-12-03T07:28:40.478Z,2.63
2022-12-03T07:31:25.472Z,3.37
2022-12-03T07:34:10.178Z,3.33
2022-12-03T07:36:55.297Z,3.62
2022-12-03T07:39:40.195Z,3.55
2022-12-03T07:42:25.087Z,3.45
2022-12-03T07:45:09.997Z,3.54
2022-12-03T07:47:54.969Z,3.48
2022-12-03T07:50:39.769Z,3.88
2022-12-03T07:53:24.809Z,3.63
2022-12-03T07:56:09.650Z,3.74
2022-12-03T07:58:54.485Z,3.60
2022-12-03T08:01:39.572Z,3.98
2022-12-03T08:04:24.903Z,3.92
2022-12-03T08:07:09.853Z,3.79
2022-12-03T08:09:54.690Z,3.26
2022-12-03T08:12:39.610Z,3.85
2022-12-03T08:15:24.470Z,3.99
2022-12-03T08:18:09.393Z,4.09
2022-12-03T08:20:54.230Z,4.29
2022-12-03T08:23:39.202Z,4.09
2022-12-03T08:26:24.281Z,4.17
2022-12-03T08:29:09.095Z,3.94
2022-12-03T08:31:54.179Z,4.25
2022-12-03T08:34:39.602Z,4.30
2022-12-03T08:37:24.609Z,4.25
2022-12-03T08:40:09.465Z,4.38
2022-12-03T08:42:54.386Z,4.10
2022-12-03T08:45:39.454Z,4.60
2022-12-03T08:48:24.822Z,4.92
2022-12-03T08:51:09.805Z,4.92
2022-12-03T08:54:01.083Z,4.64
2022-12-03T08:56:46.717Z,4.72
2022-12-03T08:59:31.608Z,5.11
2022-12-03T09:02:16.402Z,5.29
2022-12-03T09:05:01.414Z,5.37
2022-12-03T09:07:46.360Z,5.47
2022-12-03T09:10:31.157Z,5.82
2022-12-03T09:13:16.195Z,5.03
2022-12-03T09:16:01.195Z,5.84
2022-12-03T09:18:46.137Z,5.75
2022-12-03T09:21:30.896Z,6.24
2022-12-03T09:24:15.736Z,5.62
2022-12-03T09:27:00.616Z,5.09
2022-12-03T09:29:45.593Z,5.85
2022-12-03T09:32:30.685Z,6.08
2022-12-03T09:35:15.530Z,6.23
2022-12-03T09:38:00.471Z,6.09
2022-12-03T09:40:45.313Z,6.16
2022-12-03T09:43:49.547Z,6.02
2022-12-03T09:46:35.647Z,6.35
2022-12-03T09:49:20.946Z,5.69
2022-12-03T09:52:05.875Z,5.63
2022-12-03T09:54:50.726Z,5.90
2022-12-03T09:57:35.672Z,5.92
2022-12-03T10:00:20.486Z,6.00
2022-12-03T10:03:05.497Z,5.97
2022-12-03T10:05:50.541Z,5.71
2022-12-03T10:08:35.388Z,6.04
2022-12-03T10:11:20.264Z,6.20
2022-12-03T10:14:05.134Z,6.34
2022-12-03T10:16:50.029Z,5.88
2022-12-03T10:19:34.735Z,6.25
2022-12-03T10:22:19.630Z,6.13
2022-12-03T10:25:04.474Z,6.39
2022-12-03T10:27:49.505Z,6.64
2022-12-03T10:30:34.443Z,6.52
2022-12-03T10:33:19.455Z,6.19
2022-12-03T10:36:04.379Z,5.91
2022-12-03T10:38:49.315Z,6.18
2022-12-03T10:41:34.374Z,6.08
2022-12-03T10:44:19.246Z,6.24
2022-12-03T10:47:04.401Z,6.34
2022-12-03T10:49:49.706Z,6.31
2022-12-03T10:52:34.630Z,6.07
2022-12-03T10:55:19.649Z,6.25
2022-12-03T10:58:04.427Z,6.14
2022-12-03T11:00:49.452Z,6.29
2022-12-03T11:03:34.617Z,6.58
2022-12-03T11:06:19.613Z,6.76
2022-12-03T11:09:08.714Z,6.27
2022-12-03T11:11:54.358Z,6.44
2022-12-03T11:14:39.237Z,5.69
2022-12-03T11:17:24.783Z,6.52
2022-12-03T11:20:09.592Z,6.52
2022-12-03T11:22:54.509Z,6.33
2022-12-03T11:25:39.484Z,6.45
2022-12-03T11:28:24.418Z,6.34
2022-12-03T11:31:09.396Z,6.31
2022-12-03T11:33:54.205Z,6.41
2022-12-03T11:37:00.729Z,6.24
2022-12-03T11:39:44.236Z,6.61
2022-12-03T11:42:29.117Z,6.70
2022-12-03T11:45:13.983Z,6.28
2022-12-03T11:47:58.923Z,6.28
2022-12-03T11:50:43.788Z,6.49
2022-12-03T11:53:28.755Z,6.35
2022-12-03T11:56:13.515Z,6.57
2022-12-03T11:58:58.338Z,6.51
2022-12-03T12:01:43.281Z,6.59
2022-12-03T12:04:28.242Z,6.73
2022-12-03T12:07:13.595Z,6.82
2022-12-03T12:09:58.605Z,6.67
2022-12-03T12:12:54.315Z,6.25
2022-12-03T12:15:39.635Z,6.52
2022-12-03T12:18:24.686Z,6.68
2022-12-03T12:21:09.587Z,6.84
2022-12-03T12:23:54.570Z,6.93
2022-12-03T12:26:39.377Z,6.86
2022-12-03T12:29:24.396Z,6.75
2022-12-03T12:32:09.478Z,6.60
2022-12-03T12:34:54.923Z,6.85
2022-12-03T12:37:42.622Z,6.93
2022-12-03T12:40:29.722Z,6.63
2022-12-03T12:43:20.356Z,6.55
2022-12-03T12:46:38.640Z,6.56
2022-12-03T12:49:13.944Z,6.73
2022-12-03T12:51:58.901Z,6.33
2022-12-03T12:54:43.819Z,6.50
2022-12-03T12:57:29.715Z,6.56
2022-12-03T13:00:14.709Z,6.58
2022-12-03T13:03:00.415Z,6.71
2022-12-03T13:05:45.881Z,6.57
2022-12-03T13:08:30.796Z,6.69
2022-12-03T13:11:15.821Z,6.71
2022-12-03T13:14:00.749Z,6.56
2022-12-03T13:16:45.856Z,6.61
2022-12-03T13:19:31.331Z,6.35
2022-12-03T13:22:16.393Z,6.49
2022-12-03T13:25:01.373Z,6.23
2022-12-03T13:27:46.308Z,6.46
2022-12-03T13:30:31.340Z,6.09
2022-12-03T13:33:16.324Z,6.23
2022-12-03T13:36:01.300Z,6.42
2022-12-03T13:38:46.094Z,6.50
2022-12-03T13:41:31.168Z,6.48
2022-12-03T13:44:16.053Z,5.95
2022-12-03T13:47:01.143Z,5.95
2022-12-03T13:49:46.059Z,5.43
2022-12-03T13:52:31.057Z,5.82
2022-12-03T13:55:17.314Z,5.94
2022-12-03T13:58:17.720Z,5.87
2022-12-03T14:01:03.102Z,6.06
2022-12-03T14:03:48.426Z,5.69
2022-12-03T14:06:33.611Z,6.16
2022-12-03T14:09:18.536Z,5.55
2022-12-03T14:12:03.671Z,5.96
2022-12-03T14:14:48.724Z,6.00
2022-12-03T14:17:33.639Z,5.70
2022-12-03T14:20:18.737Z,5.91
2022-12-03T14:23:03.731Z,5.85
2022-12-03T14:25:49.176Z,5.92
2022-12-03T14:28:34.120Z,5.74
2022-12-03T14:31:19.087Z,5.67
2022-12-03T14:34:04.556Z,5.73
2022-12-03T14:36:49.605Z,5.54
2022-12-03T14:39:34.490Z,5.42
2022-12-03T14:42:19.641Z,5.22
2022-12-03T14:45:04.665Z,5.26
2022-12-03T14:47:50.090Z,5.23
2022-12-03T14:50:35.161Z,5.28
2022-12-03T14:53:25.613Z,4.63
2022-12-03T14:56:12.162Z,5.16
2022-12-03T14:58:57.190Z,5.29
2022-12-03T15:01:42.238Z,4.88
2022-12-03T15:04:27.638Z,4.96
2022-12-03T15:07:12.573Z,5.03
2022-12-03T15:09:57.699Z,5.06
2022-12-03T15:12:43.055Z,5.02
2022-12-03T15:15:27.973Z,4.93
2022-12-03T15:18:12.828Z,4.90
2022-12-03T15:20:57.910Z,4.74
2022-12-03T15:23:42.865Z,4.26
2022-12-03T15:26:27.906Z,4.45
2022-12-03T15:29:12.743Z,4.50
2022-12-03T15:31:57.725Z,4.59
2022-12-03T15:34:44.955Z,4.40
2022-12-03T15:37:29.969Z,4.39
2022-12-03T15:40:14.810Z,4.18
2022-12-03T15:42:59.695Z,4.21
2022-12-03T15:45:44.672Z,3.81
2022-12-03T15:48:29.414Z,4.14
2022-12-03T15:51:14.499Z,4.14
2022-12-03T15:54:00.826Z,4.13
2022-12-03T15:56:46.165Z,4.16
2022-12-03T15:59:31.666Z,3.82
2022-12-03T16:02:16.689Z,3.99
2022-12-03T16:05:02.212Z,3.63
2022-12-03T16:07:48.388Z,4.02
2022-12-03T16:10:33.764Z,3.48
2022-12-03T16:13:18.907Z,3.85
2022-12-03T16:16:03.751Z,3.96
2022-12-03T16:18:49.435Z,3.51
2022-12-03T16:21:34.996Z,3.69
2022-12-03T16:24:19.903Z,3.70
2022-12-03T16:27:05.044Z,3.67
2022-12-03T16:29:50.032Z,3.78
2022-12-03T16:32:35.072Z,3.81
2022-12-03T16:35:19.930Z,3.82
2022-12-03T16:38:04.949Z,3.67
2022-12-03T16:40:50.520Z,3.55
2022-12-03T16:43:35.512Z,3.82
2022-12-03T16:46:20.460Z,4.07
2022-12-03T16:49:05.928Z,3.87
2022-12-03T16:51:50.888Z,3.79
2022-12-03T16:54:35.807Z,3.54
2022-12-03T16:57:20.679Z,3.79
2022-12-03T17:00:05.504Z,3.39
2022-12-03T17:02:50.527Z,3.49
2022-12-03T17:05:36.005Z,3.62
2022-12-03T17:08:20.886Z,3.53
2022-12-03T17:11:06.782Z,3.66
2022-12-03T17:13:51.995Z,3.50
2022-12-03T17:16:37.059Z,3.69
2022-12-03T17:19:22.026Z,3.52
2022-12-03T17:22:07.026Z,3.70
2022-12-03T17:24:51.989Z,3.86
2022-12-03T17:27:40.823Z,3.48
2022-12-03T17:30:30.034Z,3.66
2022-12-03T17:33:15.076Z,3.62
2022-12-03T17:36:00.113Z,3.44
2022-12-03T17:38:45.138Z,3.26
2022-12-03T17:41:30.064Z,3.50
2022-12-03T17:44:19.388Z,3.42
2022-12-03T17:47:05.912Z,3.42
2022-12-03T17:49:50.896Z,3.64
2022-12-03T17:52:35.883Z,3.77
2022-12-03T17:55:28.180Z,3.91
2022-12-03T17:58:21.129Z,3.91
2022-12-03T18:01:06.139Z,3.63
2022-12-03T18:03:51.675Z,3.87
2022-12-03T18:06:37.060Z,3.28
2022-12-03T18:09:22.049Z,3.90
2022-12-03T18:12:06.990Z,3.94
2022-12-03T18:14:51.932Z,3.53
2022-12-03T18:17:36.829Z,3.74
2022-12-03T18:20:22.993Z,3.88
2022-12-03T18:23:08.296Z,3.45
2022-12-03T18:25:53.357Z,3.68
2022-12-03T18:28:38.205Z,3.62
2022-12-03T18:31:23.200Z,3.90
2022-12-03T18:34:09.028Z,3.77
2022-12-03T18:36:54.152Z,4.06
2022-12-03T18:39:39.148Z,3.83
2022-12-03T18:42:23.987Z,3.77
2022-12-03T18:45:09.121Z,4.02
2022-12-03T18:47:54.456Z,4.16
2022-12-03T18:50:39.863Z,4.22
2022-12-03T18:53:24.891Z,3.79
2022-12-03T18:56:10.345Z,4.03
2022-12-03T18:58:55.340Z,3.55
2022-12-03T19:01:40.270Z,3.40
2022-12-03T19:04:25.254Z,3.70
2022-12-03T19:07:10.135Z,3.89
2022-12-03T19:09:55.608Z,3.70
2022-12-03T19:12:40.992Z,3.92
2022-12-03T19:15:26.194Z,4.01
2022-12-03T19:18:11.201Z,3.83
2022-12-03T19:20:56.173Z,4.01
2022-12-03T19:23:41.404Z,3.55
2022-12-03T19:26:28.150Z,3.95
2022-12-03T19:29:13.137Z,3.49
2022-12-03T19:31:58.250Z,3.81
2022-12-03T19:34:43.583Z,3.99
2022-12-03T19:37:28.559Z,3.76
2022-12-03T19:40:13.386Z,3.48
2022-12-03T19:42:58.487Z,3.75
2022-12-03T19:45:43.525Z,3.60
2022-12-03T19:48:28.561Z,3.89
2022-12-03T19:51:33.734Z,4.15
2022-12-03T19:54:18.779Z,3.90
2022-12-03T19:57:03.688Z,3.99
2022-12-03T19:59:48.700Z,3.95
2022-12-03T20:02:33.731Z,3.79
2022-12-03T20:05:19.109Z,3.94
2022-12-03T20:08:04.083Z,4.00
2022-12-03T20:10:49.394Z,3.99
2022-12-03T20:13:36.520Z,4.05
2022-12-03T20:16:21.798Z,3.91
2022-12-03T20:19:06.708Z,3.88
2022-12-03T20:21:51.613Z,3.88
2022-12-03T20:24:36.540Z,4.11
2022-12-03T20:27:23.159Z,3.87
2022-12-03T20:30:08.557Z,3.86
2022-12-03T20:32:53.646Z,3.79
2022-12-03T20:35:38.639Z,3.92
2022-12-03T20:38:23.646Z,3.90
2022-12-03T20:41:08.608Z,3.70
2022-12-03T20:43:53.633Z,4.01
2022-12-03T20:46:38.712Z,3.98
2022-12-03T20:49:23.606Z,4.13
2022-12-03T20:52:08.495Z,3.96
2022-12-03T20:54:53.548Z,3.74
2022-12-03T20:57:38.644Z,3.94
2022-12-03T21:00:23.471Z,3.96
2022-12-03T21:03:08.417Z,4.07
2022-12-03T21:05:53.281Z,3.31
2022-12-03T21:08:42.462Z,3.96
2022-12-03T21:11:27.914Z,3.98
2022-12-03T21:14:12.835Z,3.60
2022-12-03T21:17:08.374Z,3.82
2022-12-03T21:19:54.720Z,3.94
2022-12-03T21:22:40.252Z,3.83
2022-12-03T21:25:25.213Z,4.05
2022-12-03T21:28:10.255Z,4.30
2022-12-03T21:30:55.130Z,3.91
2022-12-03T21:33:39.886Z,4.15
2022-12-03T21:36:24.870Z,4.09
2022-12-03T21:39:09.714Z,4.27
2022-12-03T21:42:34.054Z,4.06
2022-12-03T21:44:59.763Z,4.15
2022-12-03T21:47:44.839Z,4.06
2022-12-03T21:50:30.134Z,4.34
2022-12-03T21:53:15.183Z,4.31
2022-12-03T21:56:00.351Z,4.36
2022-12-03T21:58:45.351Z,4.45
2022-12-03T22:01:30.570Z,4.34
2022-12-03T22:04:15.305Z,4.51
2022-12-03T22:07:00.354Z,4.27
2022-12-03T22:09:45.313Z,4.51
2022-12-03T22:12:30.287Z,3.91
2022-12-03T22:15:19.026Z,4.34
2022-12-03T22:18:04.404Z,4.24
2022-12-03T22:20:49.616Z,3.98
2022-12-03T22:23:34.387Z,4.01
2022-12-03T22:26:19.352Z,4.13
2022-12-03T22:29:04.425Z,4.19
2022-12-03T22:31:49.445Z,4.11
2022-12-03T22:34:34.450Z,4.20
2022-12-03T22:37:19.290Z,4.05
2022-12-03T22:40:04.258Z,4.11
2022-12-03T22:42:51.113Z,4.28
2022-12-03T22:45:36.166Z,4.22
2022-12-03T22:48:20.995Z,4.04
2022-12-03T22:51:05.828Z,4.04
2022-12-03T22:53:50.855Z,3.96
2022-12-03T22:56:35.659Z,3.90
2022-12-03T22:59:20.554Z,3.92
2022-12-03T23:02:05.551Z,4.04
2022-12-03T23:04:51.364Z,3.91
2022-12-03T23:07:36.471Z,3.83
2022-12-03T23:10:21.381Z,3.90
2022-12-03T23:13:06.949Z,4.24
2022-12-03T23:15:52.033Z,4.06
2022-12-03T23:18:37.492Z,4.04
2022-12-03T23:21:28.586Z,4.25
2022-12-03T23:24:14.968Z,3.93
2022-12-03T23:26:59.836Z,4.07
2022-12-03T23:29:44.944Z,4.38
2022-12-03T23:32:29.766Z,3.90
2022-12-03T23:35:14.938Z,4.06
2022-12-03T23:38:00.019Z,4.17
2022-12-03T23:40:48.336Z,4.38
2022-12-03T23:43:33.561Z,4.29
2022-12-03T23:46:20.927Z,4.12
2022-12-03T23:49:05.857Z,4.37
2022-12-03T23:51:51.015Z,4.17
2022-12-03T23:54:36.040Z,4.34
2022-12-03T23:57:20.994Z,4.33
